createdAt,value
2023-11-14T00:00:59.723Z,89.33
2023-11-14T00:03:31.633Z,89.12
2023-11-14T00:06:03.892Z,89.02
2023-11-14T00:08:34.435Z,88.71
2023-11-14T00:11:06.970Z,88.46
2023-11-14T00:13:38.045Z,88.39
2023-11-14T00:16:10.282Z,88.18
2023-11-14T00:18:43.143Z,88.04
2023-11-14T00:21:13.939Z,87.75
2023-11-14T00:23:47.668Z,88.09
2023-11-14T00:26:19.679Z,87.23
2023-11-14T00:28:52.116Z,87.83
2023-11-14T00:31:25.313Z,87.38
2023-11-14T00:33:55.919Z,87.15
2023-11-14T00:36:27.238Z,87.16
2023-11-14T00:38:59.440Z,87.55
2023-11-14T00:41:30.201Z,87.92
2023-11-14T00:44:00.716Z,87.58
2023-11-14T00:46:31.346Z,87.82
2023-11-14T00:49:01.882Z,88.00
2023-11-14T00:51:32.553Z,87.91
2023-11-14T00:54:03.040Z,88.06
2023-11-14T00:56:34.042Z,88.17
2023-11-14T00:59:05.540Z,88.37
2023-11-14T01:01:38.378Z,88.00
2023-11-14T01:04:10.595Z,88.12
2023-11-14T01:06:42.439Z,88.06
2023-11-14T01:09:12.917Z,88.50
2023-11-14T01:11:43.493Z,88.54
2023-11-14T01:14:14.157Z,88.47
2023-11-14T01:16:45.215Z,88.31
2023-11-14T01:19:16.011Z,88.40
2023-11-14T01:21:48.151Z,88.39
2023-11-14T01:24:18.658Z,88.53
2023-11-14T01:26:49.276Z,88.58
2023-11-14T01:29:19.737Z,88.95
2023-11-14T01:31:50.287Z,88.82
2023-11-14T01:34:20.869Z,88.87
2023-11-14T01:36:52.498Z,88.36
2023-11-14T01:39:26.348Z,88.35
2023-11-14T01:41:57.056Z,88.53
2023-11-14T01:44:27.582Z,88.34
2023-11-14T01:46:59.066Z,88.80
2023-11-14T01:49:33.184Z,88.47
2023-11-14T01:52:03.843Z,88.30
2023-11-14T01:54:35.197Z,88.05
2023-11-14T01:57:06.644Z,88.58
2023-11-14T01:59:37.270Z,88.16
2023-11-14T02:02:08.669Z,88.06
2023-11-14T02:04:40.223Z,88.03
2023-11-14T02:07:12.139Z,87.86
2023-11-14T02:09:43.434Z,87.54
2023-11-14T02:12:13.944Z,87.95
2023-11-14T02:14:44.471Z,87.92
2023-11-14T02:17:17.873Z,87.40
2023-11-14T02:19:48.888Z,87.36
2023-11-14T02:22:19.546Z,87.00
2023-11-14T02:24:56.502Z,86.96
2023-11-14T02:27:27.039Z,86.69
2023-11-14T02:29:59.134Z,86.52
2023-11-14T02:32:29.647Z,86.88
2023-11-14T02:35:00.205Z,86.43
2023-11-14T02:37:30.734Z,85.72
2023-11-14T02:40:01.519Z,85.98
2023-11-14T02:42:32.075Z,86.12
2023-11-14T02:45:04.354Z,85.61
2023-11-14T02:47:35.069Z,85.81
2023-11-14T02:50:40.405Z,85.69
2023-11-14T02:53:11.119Z,85.23
2023-11-14T02:55:43.359Z,85.64
2023-11-14T02:58:14.624Z,85.51
2023-11-14T03:00:48.678Z,84.95
2023-11-14T03:03:21.421Z,84.90
2023-11-14T03:05:52.039Z,84.46
2023-11-14T03:08:23.904Z,84.04
2023-11-14T03:10:54.881Z,83.62
2023-11-14T03:13:25.492Z,83.13
2023-11-14T03:15:55.994Z,82.61
2023-11-14T03:18:26.473Z,82.31
2023-11-14T03:20:59.392Z,82.40
2023-11-14T03:23:30.341Z,81.88
2023-11-14T03:26:03.347Z,81.46
2023-11-14T03:28:34.970Z,81.50
2023-11-14T03:31:07.133Z,81.41
2023-11-14T03:33:39.240Z,81.50
2023-11-14T03:36:11.690Z,80.98
2023-11-14T03:38:44.212Z,81.56
2023-11-14T03:41:16.217Z,81.86
2023-11-14T03:43:48.778Z,82.10
2023-11-14T03:46:19.495Z,82.21
2023-11-14T03:48:51.732Z,81.91
2023-11-14T03:51:22.665Z,82.28
2023-11-14T03:53:53.307Z,82.25
2023-11-14T03:56:24.946Z,82.56
2023-11-14T03:58:55.499Z,82.46
2023-11-14T04:01:25.984Z,82.54
2023-11-14T04:03:56.936Z,83.03
2023-11-14T04:06:27.500Z,83.10
2023-11-14T04:08:58.064Z,83.67
2023-11-14T04:11:31.648Z,83.32
2023-11-14T04:14:02.685Z,83.31
2023-11-14T04:16:33.369Z,83.37
2023-11-14T04:19:03.951Z,83.64
2023-11-14T04:21:34.535Z,83.18
2023-11-14T04:24:05.332Z,83.50
2023-11-14T04:26:36.697Z,83.09
2023-11-14T04:29:07.289Z,83.54
2023-11-14T04:31:37.964Z,83.70
2023-11-14T04:34:08.981Z,83.63
2023-11-14T04:36:39.726Z,83.38
2023-11-14T04:39:10.867Z,83.10
2023-11-14T04:41:43.931Z,82.48
2023-11-14T04:44:14.512Z,82.43
2023-11-14T04:46:48.111Z,81.88
2023-11-14T04:49:18.777Z,82.33
2023-11-14T04:51:49.307Z,82.65
2023-11-14T04:54:19.918Z,82.52
2023-11-14T04:56:50.488Z,82.22
2023-11-14T04:59:22.037Z,81.97
2023-11-14T05:01:54.418Z,81.32
2023-11-14T05:04:25.178Z,81.50
2023-11-14T05:06:56.249Z,81.33
2023-11-14T05:09:26.854Z,81.18
2023-11-14T05:11:57.622Z,80.72
2023-11-14T05:14:31.008Z,80.48
2023-11-14T05:17:01.588Z,80.68
2023-11-14T05:19:34.714Z,80.05
2023-11-14T05:22:10.667Z,80.51
2023-11-14T05:24:41.523Z,80.17
2023-11-14T05:27:12.177Z,80.05
2023-11-14T05:29:42.931Z,79.93
2023-11-14T05:32:14.166Z,79.75
2023-11-14T05:34:46.241Z,79.99
2023-11-14T05:37:17.134Z,79.54
2023-11-14T05:39:49.413Z,79.75
2023-11-14T05:42:20.071Z,79.75
2023-11-14T05:44:51.237Z,79.93
2023-11-14T05:47:22.157Z,79.45
2023-11-14T05:49:57.069Z,79.40
2023-11-14T05:52:27.622Z,79.46
2023-11-14T05:55:01.196Z,79.24
2023-11-14T05:57:33.287Z,79.11
2023-11-14T06:00:04.010Z,79.03
2023-11-14T06:02:34.594Z,78.77
2023-11-14T06:05:05.414Z,78.70
2023-11-14T06:07:36.213Z,78.62
2023-11-14T06:10:08.991Z,78.49
2023-11-14T06:12:41.185Z,79.00
2023-11-14T06:15:14.372Z,78.81
2023-11-14T06:17:46.304Z,78.90
2023-11-14T06:20:17.323Z,79.00
2023-11-14T06:22:49.135Z,78.65
2023-11-14T06:25:20.577Z,78.88
2023-11-14T06:27:51.420Z,79.13
2023-11-14T06:30:23.013Z,79.07
2023-11-14T06:32:53.564Z,79.02
2023-11-14T06:35:24.323Z,79.07
2023-11-14T06:37:57.231Z,78.85
2023-11-14T06:40:30.850Z,78.69
2023-11-14T06:43:01.388Z,78.50
2023-11-14T06:45:33.532Z,78.46
2023-11-14T06:48:04.652Z,78.20
2023-11-14T06:50:41.706Z,78.26
2023-11-14T06:53:11.440Z,77.63
2023-11-14T06:55:42.781Z,77.98
2023-11-14T06:58:13.476Z,77.68
2023-11-14T07:00:46.275Z,77.15
2023-11-14T07:03:18.498Z,77.49
2023-11-14T07:05:53.537Z,77.47
2023-11-14T07:08:24.948Z,77.47
2023-11-14T07:11:02.757Z,77.09
2023-11-14T07:13:34.532Z,76.99
2023-11-14T07:16:05.845Z,76.65
2023-11-14T07:18:36.897Z,76.38
2023-11-14T07:21:09.832Z,76.62
2023-11-14T07:23:42.989Z,76.13
2023-11-14T07:26:18.738Z,75.91
2023-11-14T07:28:51.200Z,75.89
2023-11-14T07:31:21.840Z,75.57
2023-11-14T07:33:54.084Z,75.51
2023-11-14T07:36:26.177Z,75.26
2023-11-14T07:38:59.706Z,75.52
2023-11-14T07:41:32.308Z,75.09
2023-11-14T07:44:07.649Z,74.90
2023-11-14T07:46:50.823Z,74.97
2023-11-14T07:49:23.252Z,74.77
2023-11-14T07:51:55.115Z,74.92
2023-11-14T07:54:27.037Z,74.62
2023-11-14T07:56:59.708Z,74.32
2023-11-14T07:59:32.521Z,74.39
2023-11-14T08:02:03.393Z,73.99
2023-11-14T08:04:38.276Z,74.59
2023-11-14T08:07:14.399Z,74.27
2023-11-14T08:09:43.308Z,74.72
2023-11-14T08:12:15.510Z,74.19
2023-11-14T08:14:49.168Z,74.29
2023-11-14T08:17:22.047Z,74.13
2023-11-14T08:19:53.023Z,73.95
2023-11-14T08:22:24.424Z,73.94
2023-11-14T08:24:55.229Z,74.21
2023-11-14T08:27:26.065Z,74.59
2023-11-14T08:29:58.552Z,74.54
2023-11-14T08:32:31.781Z,74.53
2023-11-14T08:35:04.431Z,74.70
2023-11-14T08:37:35.436Z,74.81
2023-11-14T08:40:06.638Z,74.76
2023-11-14T08:42:38.897Z,74.67
2023-11-14T08:45:10.692Z,74.60
2023-11-14T08:47:41.271Z,74.11
2023-11-14T08:50:12.184Z,73.85
2023-11-14T08:52:43.008Z,74.21
2023-11-14T08:55:13.786Z,73.68
2023-11-14T08:57:45.069Z,73.90
2023-11-14T09:00:16.928Z,73.21
2023-11-14T09:02:47.716Z,73.06
2023-11-14T09:05:21.529Z,72.95
2023-11-14T09:07:53.124Z,72.54
2023-11-14T09:10:25.048Z,72.47
2023-11-14T09:12:58.193Z,72.28
2023-11-14T09:15:29.017Z,72.38
2023-11-14T09:18:00.161Z,72.36
2023-11-14T09:20:30.878Z,72.65
2023-11-14T09:23:02.262Z,72.15
2023-11-14T09:25:34.661Z,71.98
2023-11-14T09:28:05.976Z,71.61
2023-11-14T09:30:37.690Z,71.71
2023-11-14T09:33:08.886Z,71.79
2023-11-14T09:35:42.196Z,71.95
2023-11-14T09:38:14.086Z,71.91
2023-11-14T09:40:44.714Z,71.23
2023-11-14T09:43:15.644Z,71.52
2023-11-14T09:45:47.936Z,71.33
2023-11-14T09:48:20.045Z,70.75
2023-11-14T09:50:52.004Z,70.41
2023-11-14T09:53:25.623Z,70.60
2023-11-14T09:55:57.927Z,70.53
2023-11-14T09:58:28.500Z,70.38
2023-11-14T10:01:00.779Z,70.46
2023-11-14T10:03:32.994Z,70.70
2023-11-14T10:06:03.820Z,71.05
2023-11-14T10:08:40.205Z,71.03
2023-11-14T10:11:11.627Z,71.19
2023-11-14T10:13:43.000Z,71.70
2023-11-14T10:16:22.007Z,74.82
2023-11-14T10:18:54.512Z,75.12
2023-11-14T10:21:35.195Z,71.70
2023-11-14T10:24:13.740Z,70.23
2023-11-14T10:26:55.182Z,68.12
2023-11-14T10:29:25.959Z,68.99
2023-11-14T10:31:56.701Z,68.72
2023-11-14T10:34:34.989Z,69.33
2023-11-14T10:37:05.705Z,69.22
2023-11-14T10:39:36.447Z,69.19
2023-11-14T10:42:11.816Z,68.57
2023-11-14T10:44:46.618Z,68.51
2023-11-14T10:47:18.042Z,68.14
2023-11-14T10:49:50.552Z,68.17
2023-11-14T10:52:23.219Z,68.56
2023-11-14T10:54:56.233Z,68.33
2023-11-14T10:57:28.243Z,68.72
2023-11-14T11:00:01.599Z,68.71
2023-11-14T11:02:34.920Z,68.54
2023-11-14T11:05:06.117Z,68.33
2023-11-14T11:07:38.832Z,68.26
2023-11-14T11:10:11.552Z,67.84
2023-11-14T11:12:43.258Z,67.84
2023-11-14T11:15:14.151Z,67.64
2023-11-14T11:17:47.287Z,68.18
2023-11-14T11:20:28.643Z,68.57
2023-11-14T11:23:13.060Z,68.45
2023-11-14T11:25:45.837Z,68.62
2023-11-14T11:28:31.380Z,68.93
2023-11-14T11:31:13.468Z,68.84
2023-11-14T11:33:48.118Z,68.81
2023-11-14T11:36:28.950Z,69.48
2023-11-14T11:39:02.766Z,69.28
2023-11-14T11:41:46.914Z,68.99
2023-11-14T11:44:17.622Z,68.91
2023-11-14T11:46:48.484Z,69.23
2023-11-14T11:49:23.820Z,69.89
2023-11-14T11:52:12.768Z,70.02
2023-11-14T11:54:43.288Z,70.00
2023-11-14T11:57:14.491Z,69.59
2023-11-14T11:59:48.051Z,69.36
2023-11-14T12:02:20.582Z,69.38
2023-11-14T12:04:56.896Z,69.08
2023-11-14T12:07:28.551Z,69.46
2023-11-14T12:10:00.352Z,69.12
2023-11-14T12:12:33.090Z,68.97
2023-11-14T12:15:06.801Z,69.25
2023-11-14T12:17:38.628Z,69.45
2023-11-14T12:20:13.585Z,70.03
2023-11-14T12:22:45.176Z,69.98
2023-11-14T12:25:15.917Z,70.20
2023-11-14T12:28:00.097Z,70.84
2023-11-14T12:30:31.819Z,70.97
2023-11-14T12:33:11.921Z,70.69
2023-11-14T12:35:51.942Z,70.62
2023-11-14T12:38:40.674Z,70.26
2023-11-14T12:41:24.187Z,70.06
2023-11-14T12:44:07.724Z,70.18
2023-11-14T12:46:35.467Z,69.82
2023-11-14T12:49:14.006Z,69.86
2023-11-14T12:51:46.056Z,69.82
2023-11-14T12:54:18.985Z,70.51
2023-11-14T12:56:49.848Z,70.87
2023-11-14T12:59:22.375Z,73.09
2023-11-14T13:01:54.406Z,76.59
2023-11-14T13:04:25.082Z,79.21
2023-11-14T13:06:56.269Z,80.35
2023-11-14T13:09:28.451Z,80.68
2023-11-14T13:11:59.145Z,81.30
2023-11-14T13:14:29.775Z,80.81
2023-11-14T13:17:00.360Z,81.33
2023-11-14T13:19:31.257Z,81.47
2023-11-14T13:22:01.781Z,81.71
2023-11-14T13:24:32.838Z,81.68
2023-11-14T13:27:03.461Z,81.12
2023-11-14T13:29:34.888Z,81.46
2023-11-14T13:32:07.461Z,81.53
2023-11-14T13:34:37.982Z,81.81
2023-11-14T13:37:09.860Z,81.78
2023-11-14T13:39:43.472Z,81.06
2023-11-14T13:42:14.155Z,80.58
2023-11-14T13:44:46.215Z,80.03
2023-11-14T13:47:17.842Z,80.30
2023-11-14T13:49:48.870Z,80.52
2023-11-14T13:52:21.966Z,80.21
2023-11-14T13:54:53.580Z,80.90
2023-11-14T13:57:26.499Z,81.00
2023-11-14T13:59:58.664Z,80.62
2023-11-14T14:02:31.275Z,79.67
2023-11-14T14:05:02.900Z,79.34
2023-11-14T14:07:33.821Z,78.52
2023-11-14T14:10:05.579Z,78.19
2023-11-14T14:12:38.002Z,77.69
2023-11-14T14:15:11.114Z,76.72
2023-11-14T14:17:43.200Z,76.65
2023-11-14T14:20:15.524Z,76.32
2023-11-14T14:22:47.773Z,76.04
2023-11-14T14:25:19.295Z,76.18
2023-11-14T14:27:49.948Z,76.42
2023-11-14T14:30:21.981Z,76.26
2023-11-14T14:32:55.076Z,77.01
2023-11-14T14:35:26.534Z,77.01
2023-11-14T14:37:58.475Z,76.45
2023-11-14T14:40:30.616Z,76.37
2023-11-14T14:43:02.638Z,76.09
2023-11-14T14:45:34.412Z,77.39
2023-11-14T14:48:08.676Z,77.99
2023-11-14T14:50:39.195Z,78.40
2023-11-14T14:53:11.456Z,78.56
2023-11-14T14:55:42.050Z,78.69
2023-11-14T14:58:12.635Z,78.10
2023-11-14T15:00:43.237Z,77.85
2023-11-14T15:03:22.661Z,77.30
2023-11-14T15:05:56.042Z,77.71
2023-11-14T15:08:26.736Z,79.89
2023-11-14T15:10:57.789Z,82.87
2023-11-14T15:13:30.135Z,84.46
2023-11-14T15:16:03.354Z,85.90
2023-11-14T15:18:34.847Z,86.18
2023-11-14T15:21:06.180Z,86.29
2023-11-14T15:23:38.296Z,86.34
2023-11-14T15:26:09.880Z,87.61
2023-11-14T15:28:42.168Z,86.76
2023-11-14T15:31:15.070Z,86.85
2023-11-14T15:33:46.503Z,87.00
2023-11-14T15:36:19.321Z,86.41
2023-11-14T15:38:51.699Z,86.42
2023-11-14T15:41:25.597Z,85.63
2023-11-14T15:43:56.345Z,85.80
2023-11-14T15:46:28.414Z,85.74
2023-11-14T15:48:58.931Z,85.09
2023-11-14T15:51:31.063Z,85.79
2023-11-14T15:54:07.277Z,85.81
2023-11-14T15:56:35.841Z,85.26
2023-11-14T15:59:07.372Z,84.60
2023-11-14T16:01:43.269Z,84.95
2023-11-14T16:04:15.021Z,84.59
2023-11-14T16:06:45.833Z,84.83
2023-11-14T16:09:16.471Z,84.07
2023-11-14T16:11:47.306Z,84.64
2023-11-14T16:14:17.935Z,83.61
2023-11-14T16:16:49.372Z,83.19
2023-11-14T16:19:22.684Z,83.14
2023-11-14T16:21:52.202Z,82.40
2023-11-14T16:24:22.743Z,81.84
2023-11-14T16:26:53.330Z,82.53
2023-11-14T16:29:25.449Z,81.85
2023-11-14T16:31:56.523Z,81.53
2023-11-14T16:34:27.252Z,81.74
2023-11-14T16:36:57.929Z,81.53
2023-11-14T16:39:29.243Z,81.05
2023-11-14T16:42:00.063Z,80.87
2023-11-14T16:44:31.725Z,80.82
2023-11-14T16:47:03.854Z,80.80
2023-11-14T16:49:36.059Z,80.60
2023-11-14T16:52:11.729Z,80.29
2023-11-14T16:54:45.392Z,80.08
2023-11-14T16:57:15.964Z,80.60
2023-11-14T16:59:46.670Z,79.97
2023-11-14T17:02:18.295Z,80.26
2023-11-14T17:04:49.050Z,80.23
2023-11-14T17:07:20.914Z,80.72
2023-11-14T17:09:51.734Z,80.46
2023-11-14T17:12:22.537Z,80.50
2023-11-14T17:14:53.038Z,79.86
2023-11-14T17:17:26.500Z,80.00
2023-11-14T17:19:56.078Z,79.90
2023-11-14T17:22:26.618Z,79.81
2023-11-14T17:24:58.072Z,79.39
2023-11-14T17:27:31.181Z,79.18
2023-11-14T17:30:03.541Z,79.33
2023-11-14T17:32:35.759Z,79.21
2023-11-14T17:35:08.247Z,79.11
2023-11-14T17:37:38.805Z,79.00
2023-11-14T17:40:10.159Z,78.94
2023-11-14T17:42:42.188Z,78.87
2023-11-14T17:45:14.293Z,78.72
2023-11-14T17:47:44.943Z,78.81
2023-11-14T17:50:16.341Z,79.19
2023-11-14T17:52:47.093Z,78.92
2023-11-14T17:55:17.762Z,78.87
2023-11-14T17:57:48.402Z,79.05
2023-11-14T18:00:19.608Z,79.12
2023-11-14T18:02:50.291Z,79.19
2023-11-14T18:05:21.913Z,78.54
2023-11-14T18:07:55.091Z,78.14
2023-11-14T18:10:26.226Z,78.34
2023-11-14T18:13:00.328Z,78.37
2023-11-14T18:15:33.066Z,78.40
2023-11-14T18:18:04.931Z,78.48
2023-11-14T18:20:38.784Z,78.35
2023-11-14T18:23:11.060Z,78.52
2023-11-14T18:25:41.607Z,78.65
2023-11-14T18:28:15.252Z,78.86
2023-11-14T18:30:45.877Z,78.92
2023-11-14T18:33:16.415Z,79.21
2023-11-14T18:35:49.062Z,79.47
2023-11-14T18:38:20.585Z,78.86
2023-11-14T18:40:54.441Z,78.90
2023-11-14T18:43:25.692Z,79.06
2023-11-14T18:45:57.456Z,79.04
2023-11-14T18:48:30.841Z,79.33
2023-11-14T18:51:02.823Z,78.81
2023-11-14T18:53:33.770Z,79.30
2023-11-14T18:56:06.473Z,79.38
2023-11-14T18:58:40.165Z,79.54
2023-11-14T19:01:10.832Z,79.65
2023-11-14T19:03:42.726Z,79.34
2023-11-14T19:06:13.929Z,79.17
2023-11-14T19:08:46.298Z,79.45
2023-11-14T19:11:19.619Z,78.97
2023-11-14T19:13:59.963Z,78.91
2023-11-14T19:16:25.386Z,78.71
2023-11-14T19:18:57.703Z,78.61
2023-11-14T19:21:44.420Z,78.71
2023-11-14T19:24:00.829Z,78.80
2023-11-14T19:26:33.334Z,78.54
2023-11-14T19:29:04.309Z,78.90
2023-11-14T19:31:40.017Z,78.95
2023-11-14T19:34:12.173Z,79.19
2023-11-14T19:36:44.710Z,79.45
2023-11-14T19:39:19.858Z,79.74
2023-11-14T19:41:50.363Z,80.01
2023-11-14T19:44:22.215Z,80.14
2023-11-14T19:46:53.802Z,79.81
2023-11-14T19:49:30.543Z,80.00
2023-11-14T19:52:00.074Z,80.01
2023-11-14T19:54:32.991Z,79.93
2023-11-14T19:57:04.776Z,80.06
2023-11-14T19:59:36.947Z,80.14
2023-11-14T20:02:11.004Z,80.32
2023-11-14T20:04:42.220Z,80.53
2023-11-14T20:07:14.178Z,80.83
2023-11-14T20:09:44.726Z,81.61
2023-11-14T20:12:15.256Z,81.00
2023-11-14T20:14:47.317Z,80.46
2023-11-14T20:17:21.429Z,80.93
2023-11-14T20:19:52.003Z,81.10
2023-11-14T20:24:51.611Z,80.40
2023-11-14T20:27:22.225Z,80.15
2023-11-14T20:29:53.592Z,80.39
2023-11-14T20:32:24.233Z,80.67
2023-11-14T20:34:55.866Z,80.56
2023-11-14T20:37:26.388Z,80.80
2023-11-14T20:39:57.243Z,81.09
2023-11-14T20:42:29.127Z,81.05
2023-11-14T20:45:01.569Z,81.19
2023-11-14T20:47:32.116Z,81.00
2023-11-14T20:50:06.288Z,81.24
2023-11-14T20:52:41.223Z,81.25
2023-11-14T20:55:11.966Z,81.42
2023-11-14T20:57:44.481Z,81.84
2023-11-14T21:00:17.181Z,81.43
2023-11-14T21:02:47.804Z,81.30
2023-11-14T21:05:18.539Z,81.62
2023-11-14T21:07:49.639Z,82.07
2023-11-14T21:10:21.847Z,82.00
2023-11-14T21:12:52.396Z,81.48
2023-11-14T21:15:23.190Z,81.73
2023-11-14T21:17:53.965Z,81.72
2023-11-14T21:20:26.083Z,82.00
2023-11-14T21:22:57.407Z,81.89
2023-11-14T21:25:28.058Z,82.50
2023-11-14T21:27:58.785Z,82.82
2023-11-14T21:30:29.807Z,83.11
2023-11-14T21:33:02.104Z,83.51
2023-11-14T21:35:35.600Z,83.20
2023-11-14T21:38:07.556Z,83.51
2023-11-14T21:40:38.532Z,84.39
2023-11-14T21:43:10.897Z,84.33
2023-11-14T21:45:41.577Z,85.00
2023-11-14T21:48:12.227Z,85.55
2023-11-14T21:50:43.451Z,85.54
2023-11-14T21:53:14.839Z,85.92
2023-11-14T21:55:47.776Z,85.40
2023-11-14T21:58:18.334Z,85.49
2023-11-14T22:00:50.574Z,85.72
2023-11-14T22:03:21.170Z,85.67
2023-11-14T22:05:52.327Z,85.97
2023-11-14T22:08:23.172Z,85.79
2023-11-14T22:10:53.799Z,86.23
2023-11-14T22:13:24.265Z,86.75
2023-11-14T22:15:54.912Z,86.80
2023-11-14T22:18:25.644Z,86.38
2023-11-14T22:20:57.414Z,87.14
2023-11-14T22:23:28.706Z,87.12
2023-11-14T22:26:00.278Z,87.23
2023-11-14T22:28:31.036Z,87.42
2023-11-14T22:31:01.581Z,87.40
2023-11-14T22:33:32.309Z,87.60
2023-11-14T22:36:03.877Z,87.79
2023-11-14T22:38:34.585Z,87.91
2023-11-14T22:41:05.938Z,88.31
2023-11-14T22:43:36.618Z,88.15
2023-11-14T22:46:07.429Z,89.75
2023-11-14T22:48:38.017Z,89.55
2023-11-14T22:51:10.287Z,89.77
2023-11-14T22:53:41.374Z,90.02
2023-11-14T22:56:22.486Z,90.20
2023-11-14T22:58:52.939Z,89.44
2023-11-14T23:01:24.597Z,89.49
2023-11-14T23:03:55.562Z,89.04
2023-11-14T23:06:26.140Z,89.75
2023-11-14T23:08:56.830Z,89.75
2023-11-14T23:11:29.212Z,89.89
2023-11-14T23:14:00.088Z,89.91
2023-11-14T23:16:30.658Z,89.95
2023-11-14T23:19:01.903Z,90.02
2023-11-14T23:21:32.559Z,90.11
2023-11-14T23:24:05.410Z,90.35
2023-11-14T23:26:38.303Z,90.45
2023-11-14T23:29:09.512Z,90.24
2023-11-14T23:31:40.053Z,90.14
2023-11-14T23:34:11.278Z,89.93
2023-11-14T23:36:42.004Z,89.95
2023-11-14T23:39:13.525Z,90.12
2023-11-14T23:41:45.662Z,90.57
2023-11-14T23:44:17.894Z,90.70
2023-11-14T23:46:48.816Z,90.05
2023-11-14T23:49:19.513Z,90.89
2023-11-14T23:51:50.116Z,90.59
2023-11-14T23:54:20.988Z,89.84
2023-11-14T23:56:51.683Z,89.40
2023-11-14T23:59:22.273Z,89.16
